Time;durP1;ratioP1;P1;durP2;ratioP2;P2;SDS_P1;SDS_P2;PMS_P1;PMS_P2;Temp;Humidity;BMP_temperature;BMP_pressure;BME280_temperature;BME280_humidity;BME280_pressure;Samples;Min_cycle;Max_cycle;Signal;HPM_P1;HPM_P2
2023/04/26 00:02:52;;;;;;;13.95;8.23;;;;;;;7.69;93.01;99503.34;1636124;86;21254;-80
2023/04/26 00:05:58;;;;;;;11.40;8.28;;;;;;;7.67;93.18;99510.86;1636899;87;21780;-81
2023/04/26 00:09:04;;;;;;;19.45;8.93;;;;;;;7.65;93.25;99510.16;1636909;87;21192;-81
2023/04/26 00:12:10;;;;;;;15.63;9.98;;;;;;;7.69;92.95;99513.39;1636605;86;21344;-91
2023/04/26 00:15:17;;;;;;;24.85;13.32;;;;;;;7.59;93.03;99513.60;1635764;87;21218;-81
2023/04/26 00:18:23;;;;;;;20.15;13.35;;;;;;;7.60;92.80;99511.21;1635781;86;21214;-91
2023/04/26 00:21:28;;;;;;;21.15;13.93;;;;;;;7.58;92.26;99517.88;1636975;86;21174;-91
2023/04/26 00:24:33;;;;;;;17.85;11.35;;;;;;;7.58;91.63;99516.00;1636261;87;21199;-91
2023/04/26 00:27:38;;;;;;;18.52;10.63;;;;;;;7.52;91.60;99514.47;1636335;86;21231;-82
2023/04/26 00:30:47;;;;;;;14.75;9.38;;;;;;;7.49;91.19;99517.05;1636437;87;21230;-91
2023/04/26 00:33:53;;;;;;;19.20;9.40;;;;;;;7.47;90.71;99516.88;1635648;87;21259;-80
2023/04/26 00:36:58;;;;;;;14.93;10.43;;;;;;;7.46;90.08;99512.47;1636436;86;21207;-81
2023/04/26 00:39:57;;;;;;;20.92;11.60;;;;;;;7.37;89.93;99519.29;1636973;87;21195;-90
2023/04/26 00:43:06;;;;;;;28.90;13.53;;;;;;;7.31;89.81;99517.28;1635878;86;21724;-90
2023/04/26 00:46:04;;;;;;;20.43;13.50;;;;;;;7.28;89.78;99520.33;1649593;87;21836;-80
2023/04/26 00:49:11;;;;;;;19.92;11.85;;;;;;;7.25;90.40;99517.98;1636729;87;21252;-80
2023/04/26 00:52:16;;;;;;;16.07;11.40;;;;;;;7.21;91.12;99525.30;1649858;85;21243;-89
2023/04/26 00:55:21;;;;;;;16.15;10.15;;;;;;;7.23;90.93;99520.53;1635803;87;21247;-89
2023/04/26 00:58:26;;;;;;;19.60;11.35;;;;;;;7.23;91.71;99521.37;1649192;85;21191;-89
2023/04/26 01:01:31;;;;;;;22.40;12.33;;;;;;;7.35;92.76;99519.98;1636151;86;21246;-81
2023/04/26 01:04:40;;;;;;;24.85;10.75;;;;;;;7.28;93.50;99521.70;1650047;87;21179;-89
2023/04/26 01:07:47;;;;;;;17.45;11.65;;;;;;;7.36;93.76;99513.52;1635567;86;21221;-81
2023/04/26 01:10:56;;;;;;;15.30;9.83;;;;;;;7.29;93.78;99513.02;1629196;87;21227;-89
2023/04/26 01:14:02;;;;;;;15.20;9.63;;;;;;;7.24;93.83;99508.61;1636656;87;21195;-80
2023/04/26 01:17:08;;;;;;;14.30;8.85;;;;;;;7.19;93.33;99513.22;1635796;86;21203;-89
2023/04/26 01:20:15;;;;;;;20.43;10.38;;;;;;;7.13;92.50;99519.36;1633387;87;21767;-88
2023/04/26 01:23:21;;;;;;;14.80;9.83;;;;;;;7.14;92.47;99518.33;1649343;85;21247;-90
2023/04/26 01:26:27;;;;;;;15.88;9.48;;;;;;;7.12;92.64;99519.03;1635697;86;21741;-91
2023/04/26 01:29:33;;;;;;;19.00;10.23;;;;;;;7.14;92.32;99515.61;1636647;87;21728;-81
2023/04/26 01:32:39;;;;;;;14.05;10.35;;;;;;;7.08;92.39;99513.59;1649247;85;21215;-79
2023/04/26 01:35:45;;;;;;;14.20;10.35;;;;;;;7.05;92.37;99510.70;1635952;87;21574;-90
2023/04/26 01:38:52;;;;;;;17.77;10.18;;;;;;;7.05;92.05;99510.70;1650318;87;21820;-90
2023/04/26 01:41:58;;;;;;;11.55;8.05;;;;;;;7.05;91.97;99505.77;1636364;86;21226;-90
2023/04/26 01:45:04;;;;;;;12.70;9.18;;;;;;;7.04;92.28;99504.08;1636806;87;21175;-80
2023/04/26 01:48:28;;;;;;;12.73;8.88;;;;;;;7.10;92.70;99501.50;1636963;86;21318;-80
2023/04/26 01:51:33;;;;;;;13.65;7.83;;;;;;;7.06;92.84;99500.70;1637092;86;21187;-80
2023/04/26 01:54:39;;;;;;;11.83;8.38;;;;;;;7.04;92.71;99494.56;1636853;87;21195;-80
2023/04/26 01:57:44;;;;;;;13.22;7.90;;;;;;;6.96;92.41;99500.86;1636186;86;21230;-90
2023/04/26 02:00:50;;;;;;;11.22;8.15;;;;;;;6.86;92.37;99498.33;1636777;87;21175;-90
2023/04/26 02:03:56;;;;;;;9.03;7.03;;;;;;;6.86;92.65;99503.77;1636850;87;21792;-88
2023/04/26 02:07:01;;;;;;;13.72;6.72;;;;;;;6.91;93.70;99499.17;1635767;86;21279;-81
2023/04/26 02:10:10;;;;;;;20.12;7.47;;;;;;;6.94;95.17;99500.20;1636910;87;22142;-84
2023/04/26 02:13:18;;;;;;;15.40;6.72;;;;;;;7.02;96.07;99510.22;1635770;86;21246;-88
2023/04/26 02:16:23;;;;;;;15.03;7.60;;;;;;;7.08;95.92;99509.00;1635516;86;21223;-82
2023/04/26 02:19:15;;;;;;;11.43;7.12;;;;;;;7.12;95.98;99506.79;1635934;87;21767;-79
2023/04/26 02:22:22;;;;;;;15.05;7.22;;;;;;;7.17;96.26;99512.04;1636513;86;21214;-88
2023/04/26 02:25:26;;;;;;;11.70;6.62;;;;;;;7.18;96.77;99503.37;1636747;87;21235;-88
2023/04/26 02:28:31;;;;;;;8.85;6.72;;;;;;;7.21;97.52;99507.11;1635792;86;21254;-80
2023/04/26 02:31:37;;;;;;;12.80;6.95;;;;;;;7.28;97.02;99508.09;1636774;86;21792;-90
2023/04/26 02:34:43;;;;;;;14.70;7.12;;;;;;;7.22;96.57;99504.72;1636790;87;21213;-82
2023/04/26 02:37:55;;;;;;;20.97;7.45;;;;;;;7.20;97.88;99510.86;1636085;86;21222;-89
2023/04/26 02:41:07;;;;;;;13.13;7.37;;;;;;;7.23;99.89;99509.64;1636852;87;21187;-89
2023/04/26 02:44:13;;;;;;;47.05;9.80;;;;;;;7.30;100.00;99512.02;1636278;86;21207;-81
2023/04/26 02:47:19;;;;;;;95.97;8.23;;;;;;;7.31;100.00;99510.48;1636066;86;21329;-80
2023/04/26 02:50:25;;;;;;;91.72;8.08;;;;;;;7.40;100.00;99512.66;1636957;87;21198;-88
2023/04/26 02:53:30;;;;;;;15.93;7.08;;;;;;;7.55;100.00;99507.33;1636915;86;21794;-81
2023/04/26 02:56:36;;;;;;;26.20;6.85;;;;;;;7.67;100.00;99514.09;1636381;86;21894;-89
2023/04/26 02:59:43;;;;;;;38.33;8.03;;;;;;;7.77;100.00;99497.55;1638734;87;21724;-80
2023/04/26 03:02:42;;;;;;;64.60;8.53;;;;;;;7.80;100.00;99499.89;1637131;86;21238;-88
2023/04/26 03:05:48;;;;;;;100.47;9.08;;;;;;;7.91;100.00;99500.87;1636909;87;21166;-87
2023/04/26 03:08:54;;;;;;;139.37;9.25;;;;;;;8.07;100.00;99506.20;1637093;87;21577;-87
2023/04/26 03:12:00;;;;;;;130.93;10.05;;;;;;;8.20;100.00;99513.27;1636688;86;21210;-77
2023/04/26 03:15:05;;;;;;;69.00;8.23;;;;;;;8.31;100.00;99511.16;1636844;87;21222;-89
2023/04/26 03:18:10;;;;;;;64.60;8.25;;;;;;;8.38;100.00;99510.30;1636319;86;21827;-89
2023/04/26 03:21:15;;;;;;;101.70;8.28;;;;;;;8.44;100.00;99508.19;1636842;86;21187;-89
2023/04/26 03:24:20;;;;;;;22.02;6.92;;;;;;;8.50;100.00;99503.04;1636969;87;21187;-89
2023/04/26 03:27:26;;;;;;;54.48;8.25;;;;;;;8.69;100.00;99502.53;1636103;86;21740;-79
2023/04/26 03:30:31;;;;;;;11.85;6.95;;;;;;;8.86;100.00;99494.55;1636959;87;21187;-84
2023/04/26 03:33:39;;;;;;;21.10;7.33;;;;;;;9.03;100.00;99506.64;1635994;86;21191;-81
2023/04/26 03:36:46;;;;;;;20.57;7.47;;;;;;;9.03;100.00;99505.28;1636646;86;21772;-81
2023/04/26 03:39:53;;;;;;;24.95;8.40;;;;;;;9.14;100.00;99509.78;1636970;87;21792;-89
2023/04/26 03:42:52;;;;;;;27.73;7.08;;;;;;;9.29;100.00;99513.04;1636027;86;21230;-89
2023/04/26 03:45:58;;;;;;;13.35;7.90;;;;;;;9.36;100.00;99510.75;1636564;86;21269;-81
2023/04/26 03:49:05;;;;;;;41.65;8.45;;;;;;;9.48;100.00;99512.47;1636367;87;21259;-88
2023/04/26 03:52:10;;;;;;;14.87;8.53;;;;;;;9.50;100.00;99512.28;1636522;86;21271;-81
2023/04/26 03:55:18;;;;;;;11.48;7.70;;;;;;;9.67;100.00;99510.53;1636822;87;21226;-81
2023/04/26 03:58:22;;;;;;;21.45;9.38;;;;;;;9.77;100.00;99510.23;1635556;86;21250;-80
2023/04/26 04:01:28;;;;;;;22.73;8.73;;;;;;;9.77;100.00;99504.77;1635664;86;21206;-81
2023/04/26 04:04:36;;;;;;;34.00;9.40;;;;;;;9.68;100.00;99502.66;1635638;87;21190;-81
2023/04/26 04:07:41;;;;;;;91.22;11.83;;;;;;;9.75;100.00;99503.28;1636239;86;21827;-86
2023/04/26 04:10:48;;;;;;;27.70;10.23;;;;;;;9.85;100.00;99507.92;1636889;87;21191;-88
2023/04/26 04:13:56;;;;;;;22.52;9.63;;;;;;;9.99;100.00;99507.89;1636655;87;21204;-81
2023/04/26 04:17:02;;;;;;;46.40;10.18;;;;;;;10.11;100.00;99520.52;1636561;86;21255;-82
2023/04/26 04:20:08;;;;;;;17.12;8.70;;;;;;;10.15;100.00;99515.52;1636877;87;21194;-81
2023/04/26 04:23:15;;;;;;;35.25;8.53;;;;;;;10.26;100.00;99521.90;1636914;86;21779;-81
2023/04/26 04:26:22;;;;;;;42.48;9.40;;;;;;;10.46;100.00;99527.05;1615838;86;21226;-81
2023/04/26 04:29:27;;;;;;;28.45;8.80;;;;;;;10.49;100.00;99526.67;1636443;87;21262;-80
2023/04/26 04:32:33;;;;;;;36.88;9.73;;;;;;;10.62;100.00;99525.09;1636303;86;21475;-81
2023/04/26 04:35:39;;;;;;;42.90;10.10;;;;;;;10.81;100.00;99542.73;1636855;87;21171;-83
2023/04/26 04:38:46;;;;;;;25.43;10.18;;;;;;;10.93;100.00;99551.59;1614934;87;21756;-87
2023/04/26 04:41:53;;;;;;;17.30;9.38;;;;;;;11.05;100.00;99542.30;1636686;86;21266;-86
2023/04/26 04:44:58;;;;;;;27.85;10.28;;;;;;;11.17;100.00;99538.52;1636330;87;21270;-81
2023/04/26 04:48:04;;;;;;;15.08;9.25;;;;;;;11.20;100.00;99528.02;1635711;86;21230;-81
2023/04/26 04:51:11;;;;;;;26.48;9.85;;;;;;;11.10;100.00;99531.61;1636654;87;21186;-88
2023/04/26 04:54:23;;;;;;;24.07;10.35;;;;;;;10.99;100.00;99529.42;1636631;87;21739;-81
2023/04/26 04:57:28;;;;;;;21.12;11.18;;;;;;;11.00;100.00;99527.84;1650356;85;21244;-88
2023/04/26 05:00:33;;;;;;;13.90;10.13;;;;;;;10.99;100.00;99528.05;1636810;87;21262;-88
2023/04/26 05:03:42;;;;;;;17.45;10.85;;;;;;;11.09;100.00;99531.81;1650609;87;21197;-83
2023/04/26 05:06:48;;;;;;;22.30;10.88;;;;;;;11.22;100.00;99530.55;1636821;86;21247;-81
2023/04/26 05:09:55;;;;;;;14.00;8.58;;;;;;;11.40;100.00;99539.11;1650408;87;21722;-81
2023/04/26 05:12:59;;;;;;;12.18;8.35;;;;;;;11.49;100.00;99542.55;1644277;86;21224;-88
2023/04/26 05:16:04;;;;;;;16.32;8.65;;;;;;;11.63;100.00;99547.58;1635432;86;21213;-89
2023/04/26 05:19:12;;;;;;;12.15;8.60;;;;;;;11.69;100.00;99548.13;1629827;88;21274;-89
2023/04/26 05:22:20;;;;;;;11.43;7.72;;;;;;;11.64;100.00;99550.63;1670127;84;21770;-88
2023/04/26 05:25:25;;;;;;;12.28;8.10;;;;;;;11.61;100.00;99542.81;1642603;86;21806;-81
2023/04/26 05:28:34;;;;;;;10.55;7.62;;;;;;;11.60;100.00;99533.75;1599236;87;21199;-81
2023/04/26 05:31:43;;;;;;;11.78;8.20;;;;;;;11.69;100.00;99535.80;1601439;86;21295;-80
2023/04/26 05:34:58;;;;;;;13.20;7.90;;;;;;;11.75;100.00;99537.72;1684111;85;21195;-81
2023/04/26 05:38:04;;;;;;;11.90;6.75;;;;;;;11.86;100.00;99540.47;1673738;84;21173;-80
2023/04/26 05:41:09;;;;;;;14.87;8.43;;;;;;;11.85;100.00;99543.70;1638259;87;21739;-80
2023/04/26 05:44:15;;;;;;;13.00;8.25;;;;;;;11.76;100.00;99538.04;1636782;87;21257;-80
2023/04/26 05:47:21;;;;;;;15.98;7.60;;;;;;;11.74;100.00;99535.52;1643321;85;21250;-80
2023/04/26 05:50:26;;;;;;;45.95;9.23;;;;;;;11.79;100.00;99533.53;1612901;89;22103;-81
2023/04/26 05:53:32;;;;;;;11.93;7.35;;;;;;;11.80;100.00;99536.59;1606574;89;21811;-81
2023/04/26 05:56:38;;;;;;;19.75;7.37;;;;;;;11.96;100.00;99534.92;1603237;88;21260;-81
2023/04/26 05:59:43;;;;;;;10.43;5.78;;;;;;;12.24;100.00;99533.45;1604069;88;21300;-81
2023/04/26 06:02:48;;;;;;;6.17;4.78;;;;;;;12.39;99.39;99524.21;1603432;88;21808;-88
2023/04/26 06:05:54;;;;;;;7.75;5.45;;;;;;;12.40;97.20;99532.75;1601272;88;21222;-88
2023/04/26 06:09:00;;;;;;;17.40;7.33;;;;;;;12.46;96.07;99550.58;1606985;88;21201;-89
2023/04/26 06:12:06;;;;;;;6.83;5.17;;;;;;;12.67;96.41;99562.47;1608092;87;21465;-88
2023/04/26 06:15:12;;;;;;;7.47;5.08;;;;;;;12.90;95.79;99560.71;1606276;88;21161;-88
2023/04/26 06:18:18;;;;;;;8.15;5.55;;;;;;;13.02;94.38;99558.48;1614119;87;21884;-81
2023/04/26 06:21:23;;;;;;;7.78;4.80;;;;;;;13.15;93.27;99554.06;1604593;88;21572;-81
2023/04/26 06:24:29;;;;;;;9.90;4.83;;;;;;;13.17;91.81;99555.52;1603922;89;21209;-81
2023/04/26 06:27:34;;;;;;;7.62;4.80;;;;;;;13.22;91.71;99554.92;1600005;88;21257;-81
2023/04/26 06:30:32;;;;;;;14.80;5.33;;;;;;;13.33;92.06;99562.55;1602458;88;21217;-81
2023/04/26 06:33:25;;;;;;;7.58;4.40;;;;;;;13.62;91.44;99560.39;1600968;88;21780;-81
2023/04/26 06:36:14;;;;;;;5.40;3.90;;;;;;;13.89;90.33;99562.02;1608252;88;21822;-82
2023/04/26 06:39:06;;;;;;;6.28;4.20;;;;;;;14.17;87.96;99548.49;1608809;88;21205;-89
2023/04/26 06:41:52;;;;;;;5.65;4.10;;;;;;;14.16;86.82;99552.28;1601244;88;21252;-89
2023/04/26 06:44:46;;;;;;;8.35;4.08;;;;;;;14.16;86.25;99559.16;1615349;88;21193;-81
2023/04/26 06:47:52;;;;;;;8.38;3.58;;;;;;;14.21;85.35;99557.47;1600705;88;21234;-81
2023/04/26 06:50:58;;;;;;;5.15;3.65;;;;;;;14.33;83.77;99557.61;1659529;86;21800;-82
2023/04/26 06:54:03;;;;;;;8.63;3.10;;;;;;;14.51;81.76;99557.77;1664903;86;21193;-81
2023/04/26 06:57:08;;;;;;;10.03;3.10;;;;;;;14.42;80.00;99549.95;1663837;86;21240;-89
2023/04/26 07:00:15;;;;;;;5.62;2.87;;;;;;;14.38;79.77;99549.54;1644524;86;21772;-89
2023/04/26 07:03:14;;;;;;;7.78;3.40;;;;;;;14.75;78.89;99560.27;1664109;84;21255;-82
2023/04/26 07:06:20;;;;;;;20.37;3.65;;;;;;;14.90;77.43;99559.95;1665442;84;21197;-82
2023/04/26 07:09:27;;;;;;;5.20;2.98;;;;;;;14.89;77.64;99551.38;1637204;86;21671;-89
2023/04/26 07:12:27;;;;;;;13.35;2.52;;;;;;;15.07;73.34;99553.38;1645947;87;21202;-88
2023/04/26 07:15:20;;;;;;;6.22;2.75;;;;;;;15.22;73.84;99554.41;1665166;84;21180;-82
2023/04/26 07:18:06;;;;;;;5.22;2.80;;;;;;;15.48;74.61;99558.32;1663917;86;21224;-82
2023/04/26 07:20:58;;;;;;;4.28;2.30;;;;;;;15.70;70.96;99562.05;1654847;86;21834;-82
2023/04/26 07:24:05;;;;;;;7.58;2.15;;;;;;;15.97;71.56;99559.31;1658420;86;21785;-82
2023/04/26 07:27:11;;;;;;;8.33;1.85;;;;;;;16.13;70.32;99563.36;1659120;85;21243;-89
2023/04/26 07:30:17;;;;;;;11.68;2.42;;;;;;;16.34;64.72;99555.16;1655751;86;21220;-89
2023/04/26 07:33:23;;;;;;;8.65;2.10;;;;;;;16.38;62.21;99559.69;1661044;85;21209;-89
2023/04/26 07:36:30;;;;;;;13.25;2.55;;;;;;;16.60;62.17;99553.40;1632212;86;21768;-82
2023/04/26 07:39:35;;;;;;;5.87;2.52;;;;;;;16.69;60.09;99552.53;1641115;85;21202;-82
2023/04/26 07:42:40;;;;;;;4.00;2.40;;;;;;;16.77;57.23;99548.64;1667611;84;21228;-89
2023/04/26 07:45:46;;;;;;;9.60;2.98;;;;;;;16.84;58.87;99553.52;1648639;86;21169;-82
2023/04/26 07:48:52;;;;;;;9.35;1.77;;;;;;;16.74;56.22;99549.11;1647375;87;21862;-90
2023/04/26 07:52:00;;;;;;;14.13;2.10;;;;;;;16.72;55.45;99556.80;1652150;85;21757;-88
2023/04/26 07:55:04;;;;;;;3.75;1.40;;;;;;;16.81;54.59;99554.84;1660231;86;21470;-83
2023/04/26 07:58:13;;;;;;;1.75;1.30;;;;;;;16.96;55.48;99555.78;1666293;85;21226;-82
2023/04/26 08:01:17;;;;;;;4.05;1.52;;;;;;;17.17;54.67;99563.20;1666804;85;21735;-82
2023/04/26 08:04:25;;;;;;;5.85;1.40;;;;;;;17.38;51.98;99566.80;1655519;86;21420;-82
2023/04/26 08:07:32;;;;;;;3.67;1.42;;;;;;;17.42;48.67;99557.49;1661438;85;21216;-81
2023/04/26 08:10:37;;;;;;;8.33;2.10;;;;;;;17.52;48.64;99565.48;1661160;86;21203;-81
2023/04/26 08:13:45;;;;;;;8.83;1.65;;;;;;;17.66;50.01;99553.64;1661920;85;21227;-81
2023/04/26 08:16:51;;;;;;;6.95;2.02;;;;;;;17.68;48.11;99558.92;1653871;85;21787;-81
2023/04/26 08:19:57;;;;;;;4.92;1.27;;;;;;;17.49;46.95;99552.13;1659550;85;21165;-81
2023/04/26 08:23:04;;;;;;;4.25;1.50;;;;;;;17.30;48.87;99556.09;1652322;86;21183;-82
2023/04/26 08:26:11;;;;;;;8.03;1.40;;;;;;;17.33;47.80;99552.86;1668604;85;21268;-81
2023/04/26 08:29:19;;;;;;;6.72;1.37;;;;;;;17.43;48.20;99553.64;1648190;85;21221;-82
2023/04/26 08:32:25;;;;;;;6.85;1.40;;;;;;;17.57;47.43;99552.33;1662779;85;21236;-82
2023/04/26 08:35:31;;;;;;;5.50;1.30;;;;;;;17.74;46.47;99546.95;1665850;85;21188;-88
2023/04/26 08:38:37;;;;;;;10.60;1.45;;;;;;;17.78;44.53;99550.34;1653430;84;21206;-89
2023/04/26 08:41:45;;;;;;;3.65;1.35;;;;;;;17.82;45.17;99546.02;1659532;85;21231;-90
2023/04/26 08:44:51;;;;;;;4.30;1.25;;;;;;;17.90;45.95;99551.73;1657388;86;21155;-89
2023/04/26 08:48:00;;;;;;;5.60;1.32;;;;;;;17.97;48.38;99548.83;1660995;85;21255;-88
2023/04/26 08:51:05;;;;;;;4.92;1.00;;;;;;;18.02;48.96;99545.65;1659620;85;21285;-86
2023/04/26 08:54:11;;;;;;;2.45;1.40;;;;;;;18.00;49.86;99545.03;1654029;86;21198;-89
2023/04/26 08:57:17;;;;;;;2.77;1.10;;;;;;;18.05;50.43;99538.23;1656184;85;21263;-82
2023/04/26 09:00:24;;;;;;;6.60;1.90;;;;;;;17.97;50.43;99534.44;1654220;86;21204;-89
2023/04/26 09:03:30;;;;;;;3.10;1.22;;;;;;;17.97;51.22;99539.14;1657536;86;21211;-83
2023/04/26 09:06:37;;;;;;;3.47;1.35;;;;;;;17.86;48.25;99544.45;1660140;85;21225;-89
2023/04/26 09:09:45;;;;;;;5.30;1.15;;;;;;;17.93;52.37;99538.81;1652420;86;21167;-89
2023/04/26 09:12:50;;;;;;;3.58;1.15;;;;;;;18.03;51.47;99540.41;1637814;86;21320;-89
2023/04/26 09:15:55;;;;;;;3.67;1.40;;;;;;;18.04;55.00;99531.02;1645497;85;21167;-89
2023/04/26 09:18:57;;;;;;;14.70;1.75;;;;;;;18.27;55.24;99528.73;1646330;87;21199;-90
2023/04/26 09:22:03;;;;;;;2.52;1.32;;;;;;;18.33;51.92;99535.20;1636658;86;21230;-90
2023/04/26 09:25:10;;;;;;;3.42;1.45;;;;;;;18.28;51.67;99524.88;1660090;86;21169;-89
2023/04/26 09:28:29;;;;;;;2.40;1.30;;;;;;;18.25;56.19;99522.59;1663184;84;21580;-89
2023/04/26 09:31:57;;;;;;;4.83;1.50;;;;;;;18.29;60.17;99525.71;1663846;85;21210;-90
2023/04/26 09:35:03;;;;;;;14.00;1.55;;;;;;;18.20;58.14;99531.33;1658859;86;21236;-90
2023/04/26 09:38:13;;;;;;;5.30;1.72;;;;;;;18.08;52.13;99536.37;1654048;85;21196;-90
2023/04/26 09:41:18;;;;;;;2.50;1.20;;;;;;;18.08;52.54;99532.77;1656625;86;21179;-89
2023/04/26 09:44:31;;;;;;;7.62;1.92;;;;;;;17.92;54.33;99530.73;1641328;86;21191;-90
2023/04/26 09:47:36;;;;;;;8.20;1.57;;;;;;;17.88;56.49;99524.87;1640184;86;21880;-88
2023/04/26 09:50:42;;;;;;;3.00;1.52;;;;;;;17.85;55.02;99523.96;1639828;87;21174;-89
2023/04/26 09:53:50;;;;;;;6.58;1.20;;;;;;;17.91;54.92;99527.13;1620909;87;21229;-88
2023/04/26 09:57:08;;;;;;;3.58;1.60;;;;;;;17.88;58.24;99521.55;1637680;86;21252;-89
2023/04/26 10:00:15;;;;;;;4.58;1.82;;;;;;;17.86;58.71;99532.00;1638362;86;21188;-82
2023/04/26 10:03:22;;;;;;;14.35;1.70;;;;;;;17.79;59.81;99531.31;1658255;85;21216;-81
2023/04/26 10:06:31;;;;;;;3.72;1.32;;;;;;;17.77;61.74;99531.23;1629057;86;21226;-81
2023/04/26 10:09:38;;;;;;;6.75;1.32;;;;;;;17.88;62.74;99529.02;1638539;87;21185;-81
2023/04/26 10:12:43;;;;;;;2.87;1.52;;;;;;;18.08;61.90;99529.45;1625263;87;21172;-81
2023/04/26 10:15:43;;;;;;;5.07;1.50;;;;;;;18.02;59.91;99527.66;1628536;87;21677;-81
2023/04/26 10:18:49;;;;;;;4.10;1.67;;;;;;;17.93;59.82;99512.53;1655427;85;21973;-81
2023/04/26 10:21:56;;;;;;;4.20;1.55;;;;;;;17.86;58.56;99520.94;1653802;85;21235;-81
2023/04/26 10:25:01;;;;;;;5.47;1.90;;;;;;;17.83;58.76;99521.96;1646615;86;21145;-81
2023/04/26 10:28:08;;;;;;;7.97;1.45;;;;;;;17.85;59.09;99523.41;1650693;85;21210;-81
2023/04/26 10:31:13;;;;;;;4.50;1.55;;;;;;;17.81;57.98;99529.13;1655017;86;21227;-82
2023/04/26 10:34:34;;;;;;;5.58;1.60;;;;;;;17.83;57.07;99520.06;1637100;87;21273;-81
2023/04/26 10:37:36;;;;;;;5.55;1.52;;;;;;;17.88;58.51;99529.02;1643621;85;21539;-80
2023/04/26 10:40:47;;;;;;;4.55;1.62;;;;;;;17.89;57.93;99530.69;1644477;85;21163;-82
2023/04/26 10:43:53;;;;;;;6.20;1.95;;;;;;;17.96;58.25;99528.62;1638482;87;21740;-89
2023/04/26 10:46:59;;;;;;;6.80;1.80;;;;;;;17.80;60.14;99529.37;1647770;85;21747;-82
2023/04/26 10:50:16;;;;;;;4.40;1.37;;;;;;;17.97;59.30;99527.53;1645054;86;21210;-90
2023/04/26 10:53:22;;;;;;;4.05;1.37;;;;;;;18.09;59.29;99523.37;1646024;85;21263;-90
2023/04/26 10:56:38;;;;;;;5.17;1.80;;;;;;;17.98;57.61;99515.41;1625269;87;21231;-89
2023/04/26 10:59:45;;;;;;;2.95;2.00;;;;;;;17.98;57.85;99529.23;1622411;88;21764;-82
2023/04/26 11:03:02;;;;;;;6.87;1.40;;;;;;;17.97;58.52;99526.14;1624027;87;21228;-82
2023/04/26 11:06:15;;;;;;;4.30;1.20;;;;;;;18.01;57.81;99525.96;1622063;88;21212;-81
2023/04/26 11:09:50;;;;;;;3.37;1.40;;;;;;;18.14;57.41;99535.37;1605257;88;21283;-89
2023/04/26 11:13:08;;;;;;;3.20;1.20;;;;;;;18.12;58.65;99527.87;1620497;87;21185;-81
2023/04/26 11:16:15;;;;;;;4.78;1.25;;;;;;;18.35;56.90;99516.44;1631209;88;21209;-81
2023/04/26 11:19:21;;;;;;;2.92;1.40;;;;;;;18.28;58.45;99518.50;1631732;88;21194;-89
2023/04/26 11:22:30;;;;;;;2.33;1.07;;;;;;;18.36;54.53;99514.80;1609265;88;21601;-89
2023/04/26 11:25:36;;;;;;;3.40;1.40;;;;;;;18.26;54.30;99519.30;1626876;88;21242;-81
2023/04/26 11:28:44;;;;;;;1.90;1.25;;;;;;;18.19;54.71;99522.19;1633427;88;21735;-82
2023/04/26 11:31:49;;;;;;;4.58;1.40;;;;;;;18.09;57.53;99525.59;1632548;86;21249;-81
2023/04/26 11:34:55;;;;;;;2.40;1.22;;;;;;;18.13;58.25;99517.65;1630497;88;21222;-87
2023/04/26 11:38:00;;;;;;;2.60;1.10;;;;;;;18.23;56.80;99510.09;1630422;86;21237;-81
2023/04/26 11:41:06;;;;;;;5.17;1.27;;;;;;;18.20;52.68;99514.72;1630182;88;21201;-82
2023/04/26 11:44:12;;;;;;;6.90;1.72;;;;;;;18.21;54.40;99517.78;1630375;88;21233;-82
2023/04/26 11:47:16;;;;;;;3.67;1.57;;;;;;;18.37;55.93;99515.64;1630559;86;21241;-81
2023/04/26 11:50:25;;;;;;;1.55;1.20;;;;;;;18.54;56.12;99510.16;1630476;88;21194;-81
2023/04/26 11:53:30;;;;;;;2.45;1.00;;;;;;;18.72;52.25;99507.73;1630589;86;21834;-88
2023/04/26 11:56:35;;;;;;;4.55;1.25;;;;;;;18.67;53.64;99503.46;1627007;87;21333;-88
2023/04/26 11:59:41;;;;;;;5.33;1.35;;;;;;;18.67;49.96;99497.37;1626849;88;21190;-81
2023/04/26 12:02:48;;;;;;;4.30;1.32;;;;;;;18.65;50.78;99494.86;1626654;87;21782;-88
2023/04/26 12:06:00;;;;;;;3.02;1.52;;;;;;;18.81;50.74;99495.16;1626697;88;21198;-82
2023/04/26 12:09:08;;;;;;;4.12;1.22;;;;;;;18.89;50.41;99485.06;1623939;88;21210;-81
2023/04/26 12:12:14;;;;;;;1.07;0.90;;;;;;;18.88;49.11;99491.70;1604081;88;21207;-89
2023/04/26 12:15:19;;;;;;;2.10;0.95;;;;;;;18.82;49.56;99485.75;1619480;88;21231;-88
2023/04/26 12:18:27;;;;;;;2.92;0.95;;;;;;;18.77;49.89;99491.20;1618283;87;21279;-81
2023/04/26 12:21:33;;;;;;;2.98;0.90;;;;;;;18.82;49.40;99487.14;1601822;88;21183;-81
2023/04/26 12:24:38;;;;;;;2.83;1.05;;;;;;;18.81;49.35;99491.84;1601423;89;21891;-82
2023/04/26 12:27:44;;;;;;;4.20;1.10;;;;;;;18.98;48.27;99487.72;1600903;88;21231;-88
2023/04/26 12:31:23;;;;;;;4.03;1.07;;;;;;;18.92;48.51;99484.57;1601759;88;21163;-89
2023/04/26 12:34:29;;;;;;;7.85;1.45;;;;;;;19.05;49.21;99484.77;1606764;88;21195;-86
2023/04/26 12:38:11;;;;;;;1.57;1.02;;;;;;;19.22;49.23;99477.30;1624679;87;21847;-88
2023/04/26 12:41:17;;;;;;;17.65;1.62;;;;;;;19.37;47.32;99475.30;1625236;87;21195;-89
2023/04/26 12:44:23;;;;;;;2.92;1.12;;;;;;;19.44;47.77;99480.14;1625314;88;21235;-88
2023/04/26 12:47:30;;;;;;;1.70;0.88;;;;;;;19.55;45.94;99475.58;1625017;87;21231;-89
2023/04/26 12:50:36;;;;;;;4.30;1.10;;;;;;;19.56;44.80;99480.86;1626179;88;21743;-89
2023/04/26 12:53:41;;;;;;;1.72;1.00;;;;;;;19.60;45.43;99476.52;1627937;88;21191;-90
2023/04/26 12:56:48;;;;;;;1.82;0.98;;;;;;;19.68;44.72;99468.86;1616756;87;21214;-82
2023/04/26 12:59:55;;;;;;;5.05;1.70;;;;;;;19.68;44.00;99477.19;1613404;89;21290;-88
2023/04/26 13:03:01;;;;;;;3.60;1.00;;;;;;;19.49;44.45;99469.12;1613171;87;21262;-89
2023/04/26 13:06:07;;;;;;;1.37;0.90;;;;;;;19.18;45.20;99476.12;1613457;89;21710;-88
2023/04/26 13:09:13;;;;;;;1.90;1.10;;;;;;;19.00;45.15;99475.82;1615277;89;21210;-84
2023/04/26 13:12:18;;;;;;;6.37;1.22;;;;;;;18.96;46.40;99462.72;1613425;87;21290;-89
2023/04/26 13:15:25;;;;;;;4.92;1.30;;;;;;;19.05;46.64;99459.27;1613657;89;21214;-81
2023/04/26 13:18:31;;;;;;;4.72;1.20;;;;;;;19.06;46.89;99463.75;1613520;87;21266;-81
2023/04/26 13:21:37;;;;;;;6.37;1.60;;;;;;;19.15;46.89;99462.78;1614592;87;21246;-87
2023/04/26 13:24:42;;;;;;;11.43;1.65;;;;;;;19.11;47.15;99455.52;1614683;89;21199;-84
2023/04/26 13:27:50;;;;;;;6.92;2.95;;;;;;;19.18;47.62;99452.55;1613867;87;21266;-88
2023/04/26 13:30:58;;;;;;;2.02;1.55;;;;;;;19.30;46.85;99451.92;1613880;89;21222;-81
2023/04/26 13:34:04;;;;;;;15.53;1.60;;;;;;;19.31;46.24;99451.38;1613962;89;21802;-81
2023/04/26 13:37:10;;;;;;;3.35;1.10;;;;;;;19.45;46.31;99457.41;1613111;87;21289;-89
2023/04/26 13:40:13;;;;;;;2.83;1.20;;;;;;;19.45;45.34;99449.92;1612899;89;21218;-88
2023/04/26 13:43:18;;;;;;;1.20;1.10;;;;;;;19.46;45.01;99453.53;1613177;87;21843;-88
2023/04/26 13:46:24;;;;;;;1.40;1.00;;;;;;;19.40;44.78;99456.23;1613918;87;21230;-89
2023/04/26 13:49:31;;;;;;;3.27;1.30;;;;;;;19.46;45.30;99452.98;1614570;89;21207;-81
2023/04/26 13:52:37;;;;;;;4.47;1.07;;;;;;;19.33;46.04;99451.95;1613973;87;21274;-81
2023/04/26 13:55:42;;;;;;;9.28;1.50;;;;;;;19.35;46.09;99452.55;1614711;89;21349;-89
2023/04/26 13:58:49;;;;;;;8.58;2.30;;;;;;;19.23;47.08;99455.95;1614239;89;21222;-89
2023/04/26 14:01:56;;;;;;;3.67;1.37;;;;;;;19.11;47.80;99444.98;1614727;87;21245;-82
2023/04/26 14:05:01;;;;;;;5.53;1.60;;;;;;;19.17;48.26;99455.59;1614718;89;21211;-82
2023/04/26 14:08:08;;;;;;;17.02;2.35;;;;;;;19.24;48.29;99453.47;1614612;87;21238;-89
2023/04/26 14:11:15;;;;;;;4.35;1.72;;;;;;;19.25;48.15;99452.40;1614750;89;21749;-81
2023/04/26 14:14:19;;;;;;;9.13;2.00;;;;;;;19.15;49.20;99465.01;1599383;89;21214;-82
2023/04/26 14:17:26;;;;;;;3.70;1.82;;;;;;;19.13;49.36;99458.86;1613720;87;21777;-81
2023/04/26 14:20:31;;;;;;;6.03;1.80;;;;;;;19.10;48.52;99464.92;1613348;89;21191;-81
2023/04/26 14:23:36;;;;;;;9.20;1.67;;;;;;;19.05;48.93;99457.89;1613367;87;21254;-87
2023/04/26 14:26:42;;;;;;;7.20;1.60;;;;;;;18.98;49.23;99457.23;1614040;87;21266;-82
2023/04/26 14:29:40;;;;;;;5.17;1.90;;;;;;;18.99;49.25;99453.36;1614119;89;21230;-89
2023/04/26 14:32:40;;;;;;;4.95;2.20;;;;;;;19.01;49.19;99441.50;1614098;87;21238;-82